Time;durP1;ratioP1;P1;durP2;ratioP2;P2;SDS_P1;SDS_P2;PMS_P1;PMS_P2;Temp;Humidity;BMP_temperature;BMP_pressure;BME280_temperature;BME280_humidity;BME280_pressure;Samples;Min_cycle;Max_cycle;Signal;HPM_P1;HPM_P2
2021/06/28 00:00:24;;;;;;;2.85;1.80;;;25.20;93.90;;;;;;5031166;28;20037;-75
2021/06/28 00:02:50;;;;;;;3.65;1.65;;;25.20;93.70;;;;;;5030995;28;20018;-77
2021/06/28 00:05:18;;;;;;;5.22;1.60;;;25.20;93.90;;;;;;5031205;28;20027;-78
2021/06/28 00:07:44;;;;;;;2.35;1.80;;;25.20;94.20;;;;;;5030508;28;20517;-75
2021/06/28 00:10:13;;;;;;;3.70;1.60;;;25.20;94.10;;;;;;5030748;28;20041;-81
2021/06/28 00:12:39;;;;;;;6.88;1.60;;;25.20;94.00;;;;;;5012970;28;20025;-77
2021/06/28 00:15:09;;;;;;;2.38;1.80;;;25.20;94.00;;;;;;5031191;28;20021;-77
2021/06/28 00:17:35;;;;;;;3.88;2.10;;;25.20;94.10;;;;;;5030860;28;20068;-78
2021/06/28 00:20:02;;;;;;;8.38;1.92;;;25.20;94.20;;;;;;5030624;28;20052;-77
2021/06/28 00:22:28;;;;;;;5.95;2.30;;;25.20;93.90;;;;;;5030500;28;20097;-76
2021/06/28 00:24:53;;;;;;;8.48;1.90;;;25.20;93.60;;;;;;5031172;28;20105;-83
2021/06/28 00:27:23;;;;;;;3.05;1.90;;;25.10;94.30;;;;;;5029645;28;20029;-80
2021/06/28 00:29:49;;;;;;;3.17;1.85;;;25.10;94.10;;;;;;5029214;28;20080;-75
2021/06/28 00:32:15;;;;;;;10.38;1.63;;;25.10;93.80;;;;;;5016664;28;20021;-78
2021/06/28 00:34:40;;;;;;;6.35;1.73;;;25.10;93.60;;;;;;5030646;28;20071;-80
2021/06/28 00:37:06;;;;;;;4.15;1.70;;;25.10;93.00;;;;;;5030945;28;20523;-76
2021/06/28 00:39:32;;;;;;;2.30;1.75;;;25.00;93.20;;;;;;5030552;28;20037;-81
2021/06/28 00:41:57;;;;;;;3.35;1.48;;;25.10;93.50;;;;;;5030726;28;20543;-75
2021/06/28 00:44:23;;;;;;;3.28;1.73;;;25.10;93.10;;;;;;5028520;28;20033;-77
2021/06/28 00:46:49;;;;;;;5.00;1.70;;;25.10;93.00;;;;;;5030630;28;20485;-78
2021/06/28 00:49:15;;;;;;;3.70;1.67;;;25.00;92.80;;;;;;5030158;28;20111;-77
2021/06/28 00:51:40;;;;;;;7.60;1.50;;;24.90;92.30;;;;;;5030847;28;20036;-78
2021/06/28 00:54:06;;;;;;;6.80;1.80;;;24.80;92.40;;;;;;5030544;28;20026;-77
2021/06/28 00:56:32;;;;;;;2.33;1.50;;;24.70;92.50;;;;;;5030528;28;20017;-75
2021/06/28 00:58:59;;;;;;;3.72;1.60;;;24.60;92.70;;;;;;5030786;28;20045;-75
2021/06/28 01:01:25;;;;;;;3.20;1.65;;;24.50;92.80;;;;;;5029254;28;20022;-75
2021/06/28 01:03:51;;;;;;;4.13;2.00;;;24.50;93.00;;;;;;5030835;28;20159;-75
2021/06/28 01:06:17;;;;;;;5.75;1.75;;;24.40;93.20;;;;;;5030971;28;20014;-75
2021/06/28 01:08:44;;;;;;;2.25;1.73;;;24.40;93.40;;;;;;5030872;28;20122;-80
2021/06/28 01:11:10;;;;;;;3.20;1.83;;;24.40;93.50;;;;;;5029924;28;20029;-75
2021/06/28 01:13:40;;;;;;;7.28;1.85;;;24.30;93.60;;;;;;5034824;28;20103;-75
2021/06/28 01:16:06;;;;;;;3.80;1.65;;;24.40;93.20;;;;;;5034596;28;20013;-75
2021/06/28 01:18:32;;;;;;;1.50;1.40;;;24.30;93.20;;;;;;5034367;28;20603;-81
2021/06/28 01:21:00;;;;;;;4.43;1.83;;;24.20;93.40;;;;;;5034518;28;20027;-76
2021/06/28 01:23:31;;;;;;;2.38;1.83;;;24.20;93.80;;;;;;5034224;28;20422;-80
2021/06/28 01:26:00;;;;;;;4.45;1.83;;;24.10;93.90;;;;;;5034035;28;20026;-75
2021/06/28 01:28:27;;;;;;;3.80;1.92;;;24.10;94.00;;;;;;5033885;28;20029;-77
2021/06/28 01:30:54;;;;;;;6.75;2.03;;;24.10;94.10;;;;;;5033330;28;20037;-77
2021/06/28 01:33:20;;;;;;;3.33;1.63;;;24.10;94.20;;;;;;5033185;28;20044;-75
2021/06/28 01:35:47;;;;;;;3.30;2.03;;;24.00;94.30;;;;;;5033977;28;20025;-76
2021/06/28 01:38:13;;;;;;;4.28;1.80;;;23.90;94.40;;;;;;5033456;28;20026;-76
2021/06/28 01:40:40;;;;;;;4.97;1.75;;;23.90;94.60;;;;;;5033696;28;20084;-77
2021/06/28 01:43:07;;;;;;;9.95;2.03;;;23.90;94.80;;;;;;5032182;28;20048;-76
2021/06/28 01:45:33;;;;;;;7.78;2.08;;;23.90;95.00;;;;;;5034047;28;20424;-77
2021/06/28 01:48:00;;;;;;;2.70;1.80;;;23.90;95.30;;;;;;5034591;28;20434;-75
2021/06/28 01:50:30;;;;;;;6.80;1.88;;;23.80;95.40;;;;;;5033941;28;20108;-75
2021/06/28 01:52:57;;;;;;;4.90;1.80;;;23.70;95.60;;;;;;5031539;28;20100;-76
2021/06/28 01:55:23;;;;;;;4.32;2.00;;;23.70;95.80;;;;;;5027648;28;20049;-74
2021/06/28 01:57:54;;;;;;;9.25;2.00;;;23.60;95.90;;;;;;5033764;28;20097;-81
2021/06/28 02:00:25;;;;;;;2.30;2.00;;;23.60;96.20;;;;;;5033614;28;20030;-75
2021/06/28 02:03:08;;;;;;;4.57;2.38;;;23.60;96.50;;;;;;5033146;28;20052;-76
2021/06/28 02:05:40;;;;;;;9.10;2.45;;;23.50;96.60;;;;;;5030148;28;20099;-75
2021/06/28 02:08:06;;;;;;;;;;;23.60;96.80;;;;;;5033714;28;20021;-75
2021/06/28 02:10:36;;;;;;;9.70;2.92;;;23.60;96.90;;;;;;5032074;28;20373;-75
2021/06/28 02:13:03;;;;;;;8.18;2.10;;;23.60;96.90;;;;;;5032482;28;20026;-75
2021/06/28 02:15:30;;;;;;;2.78;1.80;;;23.60;97.00;;;;;;5033105;28;20029;-77
2021/06/28 02:17:57;;;;;;;4.97;2.30;;;23.60;96.90;;;;;;5033240;28;20063;-77
2021/06/28 02:20:24;;;;;;;5.03;2.22;;;23.60;96.90;;;;;;5033110;28;20037;-76
2021/06/28 02:22:51;;;;;;;3.67;2.33;;;23.60;96.80;;;;;;5033467;28;20026;-76
2021/06/28 02:25:17;;;;;;;5.95;2.20;;;23.50;97.00;;;;;;5032538;28;20513;-76
2021/06/28 02:27:43;;;;;;;6.28;2.10;;;23.40;96.90;;;;;;5032699;28;20095;-76
2021/06/28 02:30:12;;;;;;;5.72;1.95;;;23.50;97.10;;;;;;5032550;28;20048;-75
2021/06/28 02:32:39;;;;;;;4.28;1.90;;;23.50;97.10;;;;;;5032810;28;20033;-74
2021/06/28 02:35:07;;;;;;;3.97;2.03;;;23.50;96.90;;;;;;5032644;28;20032;-78
2021/06/28 02:37:33;;;;;;;3.90;2.08;;;23.50;96.90;;;;;;5032177;28;20056;-79
2021/06/28 02:39:59;;;;;;;3.92;2.20;;;23.50;96.90;;;;;;5032377;28;20042;-76
2021/06/28 02:42:25;;;;;;;4.32;2.15;;;23.50;96.70;;;;;;5032087;28;20026;-82
2021/06/28 02:44:51;;;;;;;4.13;1.88;;;23.40;96.60;;;;;;5033238;28;20470;-77
2021/06/28 02:47:17;;;;;;;4.03;2.40;;;23.40;96.70;;;;;;5033235;28;20029;-77
2021/06/28 02:49:43;;;;;;;3.70;2.22;;;23.40;96.70;;;;;;5032662;28;20036;-78
2021/06/28 02:52:09;;;;;;;4.13;2.10;;;23.30;97.00;;;;;;5032626;28;20473;-76
2021/06/28 02:54:35;;;;;;;3.67;2.13;;;23.30;96.90;;;;;;5032251;28;20025;-80
2021/06/28 02:57:00;;;;;;;6.55;2.08;;;23.30;96.80;;;;;;5032456;28;20096;-76
2021/06/28 02:59:26;;;;;;;4.35;2.63;;;23.30;97.00;;;;;;5032801;28;20037;-76
2021/06/28 03:01:52;;;;;;;10.05;2.20;;;23.20;96.90;;;;;;5014764;28;20021;-76
2021/06/28 03:04:17;;;;;;;5.68;2.33;;;23.20;97.10;;;;;;5032266;28;20076;-77
2021/06/28 03:06:43;;;;;;;9.00;2.50;;;23.20;96.90;;;;;;5032515;28;20052;-76
2021/06/28 03:09:09;;;;;;;3.15;2.15;;;23.20;97.20;;;;;;5032549;28;20025;-83
2021/06/28 03:11:34;;;;;;;4.05;2.10;;;23.20;97.10;;;;;;5032617;28;20017;-80
2021/06/28 03:14:00;;;;;;;4.82;2.30;;;23.20;97.10;;;;;;5032075;28;20033;-78
2021/06/28 03:16:26;;;;;;;3.55;2.10;;;23.20;97.10;;;;;;5032524;28;20528;-79
2021/06/28 03:18:52;;;;;;;4.60;1.83;;;23.10;97.20;;;;;;5032129;28;20076;-75
2021/06/28 03:21:18;;;;;;;6.90;2.28;;;23.20;96.80;;;;;;5031670;28;20100;-75
2021/06/28 03:23:45;;;;;;;6.80;2.42;;;23.10;96.80;;;;;;5031870;28;20021;-76
2021/06/28 03:26:12;;;;;;;4.03;2.20;;;23.20;96.90;;;;;;5032092;28;20021;-78
2021/06/28 03:28:37;;;;;;;4.80;2.05;;;23.10;97.00;;;;;;5032295;28;20029;-79
2021/06/28 03:31:05;;;;;;;2.35;1.80;;;23.10;97.10;;;;;;5032210;28;20095;-75
2021/06/28 03:33:31;;;;;;;2.55;2.03;;;23.10;97.00;;;;;;5031020;28;20734;-76
2021/06/28 03:35:57;;;;;;;7.53;2.25;;;23.10;97.30;;;;;;5032284;28;20485;-75
2021/06/28 03:38:22;;;;;;;3.38;1.80;;;23.00;97.00;;;;;;5032370;28;20021;-76
2021/06/28 03:40:48;;;;;;;4.72;1.95;;;23.00;97.10;;;;;;5014114;28;20033;-77
2021/06/28 03:43:14;;;;;;;5.10;2.33;;;23.00;97.40;;;;;;5032077;28;20033;-75
2021/06/28 03:45:40;;;;;;;3.55;1.98;;;23.00;97.30;;;;;;5031872;28;20108;-75
2021/06/28 03:48:08;;;;;;;3.72;1.90;;;23.00;97.40;;;;;;5031686;28;20160;-76
2021/06/28 03:50:34;;;;;;;4.45;2.10;;;23.00;97.30;;;;;;5031877;28;20421;-76
2021/06/28 03:53:00;;;;;;;6.50;2.30;;;23.00;97.20;;;;;;5031802;28;20057;-75
2021/06/28 03:55:26;;;;;;;3.45;2.00;;;23.00;97.10;;;;;;5031277;28;20131;-76
2021/06/28 03:57:52;;;;;;;2.85;2.40;;;23.00;97.20;;;;;;5031442;28;20486;-77
2021/06/28 04:00:21;;;;;;;8.40;2.10;;;23.00;97.10;;;;;;5031338;28;20025;-75
2021/06/28 04:02:47;;;;;;;7.82;2.67;;;23.00;96.90;;;;;;5031561;28;20053;-75
2021/06/28 04:05:17;;;;;;;5.65;2.13;;;23.10;96.80;;;;;;5031034;28;20060;-81
2021/06/28 04:07:43;;;;;;;3.10;2.13;;;23.20;96.70;;;;;;5030969;28;20076;-76
2021/06/28 04:10:10;;;;;;;5.55;2.22;;;23.30;96.50;;;;;;5031271;28;20080;-76
2021/06/28 04:12:37;;;;;;;6.22;2.05;;;23.40;96.50;;;;;;5030984;28;20025;-76
2021/06/28 04:15:05;;;;;;;4.95;2.40;;;23.50;96.40;;;;;;5031095;28;20048;-76
2021/06/28 04:17:31;;;;;;;2.20;1.90;;;23.70;96.20;;;;;;5031079;28;20033;-76
2021/06/28 04:19:57;;;;;;;5.32;1.90;;;23.80;95.80;;;;;;5030520;28;20045;-75
2021/06/28 04:22:23;;;;;;;7.68;1.88;;;24.00;95.60;;;;;;5031475;28;20025;-80
2021/06/28 04:24:49;;;;;;;4.10;1.98;;;24.10;95.40;;;;;;5031112;28;20124;-81
2021/06/28 04:27:15;;;;;;;3.78;2.15;;;24.20;95.10;;;;;;5031128;28;20096;-77
2021/06/28 04:29:41;;;;;;;2.65;2.13;;;24.40;94.70;;;;;;5031132;28;20039;-76
2021/06/28 04:32:07;;;;;;;3.25;1.70;;;24.60;94.70;;;;;;5031195;28;20100;-75
2021/06/28 04:34:32;;;;;;;6.53;2.10;;;24.90;94.10;;;;;;5031158;28;20590;-77
2021/06/28 04:36:58;;;;;;;5.55;2.03;;;25.10;93.70;;;;;;5030923;28;20029;-76
2021/06/28 04:39:24;;;;;;;4.68;1.98;;;25.40;93.70;;;;;;5030072;28;20430;-80
2021/06/28 04:41:49;;;;;;;5.88;1.95;;;25.80;93.30;;;;;;5017337;28;20084;-76
2021/06/28 04:44:15;;;;;;;10.85;2.08;;;26.10;92.80;;;;;;5030314;28;20028;-76
2021/06/28 04:46:45;;;;;;;5.85;1.65;;;26.40;92.40;;;;;;5034702;28;20036;-76
2021/06/28 04:49:10;;;;;;;5.07;1.80;;;26.60;92.10;;;;;;5034748;28;20032;-88
2021/06/28 04:51:39;;;;;;;8.32;1.90;;;26.80;91.80;;;;;;5034986;28;20022;-76
2021/06/28 04:54:05;;;;;;;7.45;1.83;;;27.10;91.70;;;;;;5034950;28;20032;-77
2021/06/28 04:56:31;;;;;;;11.98;1.88;;;27.50;91.40;;;;;;5016573;28;20033;-76
2021/06/28 04:58:56;;;;;;;2.28;1.27;;;27.80;90.90;;;;;;5034925;28;20046;-76
2021/06/28 05:01:22;;;;;;;5.60;2.63;;;28.10;90.70;;;;;;5035217;28;20071;-77
2021/06/28 05:03:48;;;;;;;6.38;1.80;;;28.60;90.10;;;;;;5016934;28;20107;-76
2021/06/28 05:06:13;;;;;;;3.08;1.30;;;29.40;89.30;;;;;;5034518;28;20123;-78
2021/06/28 05:08:39;;;;;;;4.57;1.63;;;29.90;88.10;;;;;;5034709;28;20022;-76
2021/06/28 05:11:05;;;;;;;2.83;1.55;;;30.40;86.80;;;;;;5034460;28;20463;-76
2021/06/28 05:13:30;;;;;;;2.33;1.48;;;30.80;86.00;;;;;;5034639;28;20057;-77
2021/06/28 05:15:56;;;;;;;5.07;1.30;;;31.20;85.10;;;;;;5034476;28;20040;-76
2021/06/28 05:18:22;;;;;;;2.55;1.30;;;31.60;84.30;;;;;;5033396;28;20029;-77
2021/06/28 05:20:47;;;;;;;5.78;1.30;;;32.20;83.30;;;;;;5034202;28;20106;-76
2021/06/28 05:23:13;;;;;;;7.20;2.03;;;32.70;82.30;;;;;;5034224;28;20469;-81
2021/06/28 05:25:39;;;;;;;13.70;1.80;;;32.90;81.10;;;;;;5033396;28;20029;-80
2021/06/28 05:28:05;;;;;;;5.95;1.50;;;33.60;80.90;;;;;;5019380;28;20035;-79
2021/06/28 05:30:31;;;;;;;11.15;1.50;;;34.30;79.30;;;;;;5034582;28;20079;-77
2021/06/28 05:32:56;;;;;;;9.77;1.40;;;35.60;77.10;;;;;;5032834;28;20072;-80
2021/06/28 05:35:22;;;;;;;5.43;1.60;;;36.60;74.90;;;;;;5034789;28;20497;-75
2021/06/28 05:37:48;;;;;;;16.58;1.70;;;37.20;73.60;;;;;;5028598;28;20376;-77
2021/06/28 05:40:13;;;;;;;2.53;1.65;;;37.90;71.80;;;;;;5033877;28;20037;-74
2021/06/28 05:42:39;;;;;;;3.28;1.45;;;38.60;71.50;;;;;;5033601;28;20057;-74
2021/06/28 05:45:06;;;;;;;2.78;1.30;;;39.20;69.50;;;;;;5034279;28;20036;-76
2021/06/28 05:47:33;;;;;;;21.75;3.97;;;39.60;69.30;;;;;;5012808;28;20418;-79
2021/06/28 05:49:59;;;;;;;5.30;1.42;;;39.60;68.20;;;;;;5015212;28;20028;-82
2021/06/28 05:52:25;;;;;;;4.35;1.00;;;39.80;68.00;;;;;;5032988;28;20026;-77
2021/06/28 05:54:51;;;;;;;1.98;0.98;;;39.80;67.70;;;;;;5033647;28;20028;-78
2021/06/28 05:57:24;;;;;;;4.65;1.33;;;39.80;67.20;;;;;;5033334;28;20029;-78
2021/06/28 05:59:50;;;;;;;4.38;1.42;;;40.20;67.60;;;;;;5033974;28;20033;-77
2021/06/28 06:02:18;;;;;;;9.60;1.33;;;40.70;66.60;;;;;;5034094;28;20377;-78
2021/06/28 06:04:44;;;;;;;10.55;1.10;;;41.00;65.70;;;;;;5034421;28;20022;-80
2021/06/28 06:07:10;;;;;;;4.28;1.23;;;41.00;65.50;;;;;;5032907;28;20049;-78
2021/06/28 06:09:35;;;;;;;2.50;1.55;;;41.50;65.10;;;;;;5033413;28;20021;-78
2021/06/28 06:12:01;;;;;;;2.38;1.10;;;42.00;64.10;;;;;;5033969;28;20021;-79
2021/06/28 06:14:27;;;;;;;6.57;1.10;;;42.20;63.30;;;;;;5034068;28;20061;-78
2021/06/28 06:16:53;;;;;;;1.95;1.02;;;42.80;62.20;;;;;;5033588;28;20029;-79
2021/06/28 06:19:18;;;;;;;3.35;0.90;;;42.90;62.20;;;;;;5033573;28;20046;-79
2021/06/28 06:21:44;;;;;;;1.27;0.90;;;43.90;61.10;;;;;;5033704;28;20017;-81
2021/06/28 06:24:10;;;;;;;3.17;0.95;;;45.00;59.90;;;;;;5032449;28;20410;-80
2021/06/28 06:26:36;;;;;;;5.28;1.00;;;46.10;58.20;;;;;;5033741;28;20018;-82
2021/06/28 06:29:03;;;;;;;4.93;0.90;;;46.10;57.20;;;;;;5015709;28;20375;-82
2021/06/28 06:31:29;;;;;;;4.43;0.90;;;46.40;57.00;;;;;;5033416;28;20025;-80
2021/06/28 06:33:54;;;;;;;3.75;0.90;;;46.90;55.80;;;;;;5033212;28;20382;-81
2021/06/28 06:36:20;;;;;;;4.80;0.90;;;47.50;54.30;;;;;;5033278;28;20045;-81
2021/06/28 06:38:46;;;;;;;3.08;1.05;;;48.00;54.00;;;;;;5032702;28;20041;-81
2021/06/28 06:41:13;;;;;;;3.92;0.90;;;48.50;54.10;;;;;;5032846;28;20600;-81
2021/06/28 06:43:38;;;;;;;5.25;0.95;;;48.80;53.70;;;;;;5033020;28;20033;-82
2021/06/28 06:46:05;;;;;;;8.07;1.45;;;48.60;53.20;;;;;;5032727;28;20393;-83
2021/06/28 06:48:30;;;;;;;6.82;1.10;;;47.20;53.30;;;;;;5033098;28;20458;-81
2021/06/28 06:50:56;;;;;;;3.15;1.38;;;45.30;54.90;;;;;;5032519;28;20159;-79
2021/06/28 06:53:22;;;;;;;6.00;1.25;;;43.60;56.10;;;;;;5032371;28;20544;-82
2021/06/28 06:55:48;;;;;;;3.15;1.20;;;42.00;58.30;;;;;;5032584;28;20014;-82
2021/06/28 06:58:14;;;;;;;7.28;1.20;;;40.90;59.00;;;;;;5014983;28;20030;-80
2021/06/28 07:00:42;;;;;;;11.65;1.92;;;40.10;59.00;;;;;;5032840;28;20036;-80
2021/06/28 07:03:08;;;;;;;4.88;1.30;;;39.30;59.70;;;;;;5032449;28;20029;-80
2021/06/28 07:05:34;;;;;;;11.90;1.35;;;38.50;61.10;;;;;;5014951;28;20028;-80
2021/06/28 07:08:00;;;;;;;15.25;2.88;;;38.00;62.50;;;;;;5031729;28;20026;-80
2021/06/28 07:10:26;;;;;;;8.68;1.95;;;37.70;65.10;;;;;;5033306;28;20585;-79
2021/06/28 07:12:52;;;;;;;8.52;2.10;;;37.60;66.00;;;;;;5032757;28;20017;-82
2021/06/28 07:15:20;;;;;;;11.30;2.80;;;37.50;65.10;;;;;;5023963;28;20029;-80
2021/06/28 07:17:46;;;;;;;13.88;2.78;;;37.30;66.30;;;;;;5014672;28;20082;-79
2021/06/28 07:20:18;;;;;;;14.18;2.50;;;37.20;66.10;;;;;;5031336;28;20049;-78
2021/06/28 07:22:45;;;;;;;12.02;2.53;;;36.80;66.70;;;;;;5031010;28;20052;-80
2021/06/28 07:25:13;;;;;;;6.82;2.17;;;36.50;68.80;;;;;;5030810;28;20071;-80
2021/06/28 07:27:40;;;;;;;8.30;2.25;;;36.40;70.00;;;;;;5031505;28;20022;-79
2021/06/28 07:30:09;;;;;;;20.13;2.97;;;36.50;70.10;;;;;;5031916;28;20025;-79
2021/06/28 07:32:35;;;;;;;8.88;3.10;;;36.10;72.30;;;;;;5021880;28;20548;-79
2021/06/28 07:35:02;;;;;;;19.52;2.83;;;36.00;73.50;;;;;;5029289;28;20041;-79
2021/06/28 07:37:27;;;;;;;11.27;2.83;;;36.00;73.70;;;;;;5031567;28;20025;-80
2021/06/28 07:39:54;;;;;;;14.90;3.13;;;35.90;73.30;;;;;;5027049;28;20049;-79
2021/06/28 07:42:20;;;;;;;12.82;2.85;;;35.90;73.30;;;;;;5012447;28;20366;-79
2021/06/28 07:44:46;;;;;;;19.88;2.70;;;36.00;73.20;;;;;;5011929;28;20382;-79
2021/06/28 07:47:11;;;;;;;8.02;2.67;;;36.00;73.50;;;;;;5000317;28;20032;-79
2021/06/28 07:49:37;;;;;;;17.70;3.35;;;36.00;73.40;;;;;;5015010;28;20038;-80
2021/06/28 07:52:03;;;;;;;9.05;2.72;;;35.60;73.90;;;;;;5030506;28;20362;-79
2021/06/28 07:54:30;;;;;;;9.38;2.85;;;35.50;74.20;;;;;;5025520;28;20033;-80
2021/06/28 07:56:55;;;;;;;15.23;2.92;;;35.60;74.50;;;;;;5030751;28;20414;-80
2021/06/28 07:59:21;;;;;;;13.35;2.55;;;35.40;75.10;;;;;;5030882;28;20121;-81
2021/06/28 08:01:47;;;;;;;23.55;2.63;;;35.50;75.80;;;;;;5032474;28;20097;-80
2021/06/28 08:04:13;;;;;;;12.95;2.72;;;35.60;75.50;;;;;;5031402;28;20428;-81
2021/06/28 08:06:39;;;;;;;14.52;2.40;;;35.60;76.70;;;;;;5031881;28;20032;-81
2021/06/28 08:09:05;;;;;;;5.60;2.40;;;35.60;76.10;;;;;;5031317;28;20029;-80
2021/06/28 08:11:32;;;;;;;6.88;2.45;;;35.50;75.40;;;;;;5020113;28;20383;-80
2021/06/28 08:13:59;;;;;;;11.80;2.78;;;35.70;76.30;;;;;;5024668;28;20032;-81
2021/06/28 08:16:25;;;;;;;10.25;2.95;;;35.80;75.60;;;;;;5024117;28;20079;-82
2021/06/28 08:18:52;;;;;;;14.32;2.15;;;35.80;74.90;;;;;;5021179;28;20490;-81
2021/06/28 08:21:19;;;;;;;7.45;2.25;;;35.90;74.80;;;;;;5030743;28;20022;-82
2021/06/28 08:23:46;;;;;;;8.55;2.17;;;35.90;75.40;;;;;;5013457;28;20028;-83
2021/06/28 08:26:12;;;;;;;9.40;2.85;;;35.90;74.80;;;;;;5030381;28;20037;-82
2021/06/28 08:28:39;;;;;;;12.40;2.33;;;35.80;75.40;;;;;;5017638;28;20014;-81
2021/06/28 08:31:06;;;;;;;9.02;2.50;;;35.90;75.50;;;;;;5030774;28;20045;-82
2021/06/28 08:33:33;;;;;;;8.23;2.55;;;35.90;75.70;;;;;;5030668;28;20022;-79
2021/06/28 08:35:59;;;;;;;12.45;2.15;;;35.90;75.30;;;;;;5023539;28;20026;-80
2021/06/28 08:38:25;;;;;;;20.60;2.92;;;35.70;75.90;;;;;;5012255;28;20022;-81
2021/06/28 08:40:52;;;;;;;8.77;2.00;;;35.70;76.10;;;;;;5012541;28;20541;-80
2021/06/28 08:43:18;;;;;;;18.92;2.40;;;35.70;76.00;;;;;;5010775;28;20471;-80
2021/06/28 08:45:44;;;;;;;8.38;2.22;;;35.70;75.90;;;;;;5027078;28;20030;-80
2021/06/28 08:48:10;;;;;;;6.45;2.20;;;35.70;75.70;;;;;;5027437;28;20022;-80
2021/06/28 08:50:39;;;;;;;8.98;2.28;;;35.30;76.60;;;;;;5012892;28;20485;-80
2021/06/28 08:53:06;;;;;;;4.70;1.67;;;35.30;76.70;;;;;;5013301;28;20382;-81
2021/06/28 08:55:32;;;;;;;6.00;1.70;;;35.40;76.50;;;;;;5030844;28;20109;-80
2021/06/28 08:57:58;;;;;;;5.18;1.98;;;35.50;76.00;;;;;;5027148;28;20058;-79
2021/06/28 09:00:24;;;;;;;9.30;2.20;;;35.40;76.90;;;;;;5009449;28;20355;-80
2021/06/28 09:03:05;;;;;;;5.07;1.98;;;35.20;78.40;;;;;;5012496;28;20029;-81
2021/06/28 09:05:51;;;;;;;6.47;2.13;;;35.00;78.80;;;;;;5010879;28;20033;-80
2021/06/28 09:08:19;;;;;;;8.73;2.30;;;35.10;79.80;;;;;;5016142;28;20549;-78
2021/06/28 09:10:45;;;;;;;8.82;2.10;;;34.80;80.60;;;;;;5020027;28;20034;-80
2021/06/28 09:13:11;;;;;;;11.15;2.58;;;34.80;80.90;;;;;;5027015;28;20024;-81
2021/06/28 09:15:39;;;;;;;9.55;2.10;;;34.80;81.50;;;;;;5009904;28;20486;-81
2021/06/28 09:18:21;;;;;;;7.75;2.65;;;34.70;80.80;;;;;;5018453;28;20101;-81
2021/06/28 09:20:49;;;;;;;14.25;2.10;;;34.50;80.40;;;;;;5018558;28;20033;-82
2021/06/28 09:23:25;;;;;;;6.38;2.00;;;34.30;80.40;;;;;;5010497;28;20021;-84
2021/06/28 09:25:54;;;;;;;8.48;2.13;;;34.30;80.50;;;;;;5025527;28;20065;-82
2021/06/28 09:28:41;;;;;;;21.60;2.20;;;34.30;80.80;;;;;;5015724;28;20363;-82
2021/06/28 09:31:15;;;;;;;11.98;1.98;;;34.20;80.00;;;;;;5022622;28;20397;-82
2021/06/28 09:33:40;;;;;;;9.13;1.90;;;34.10;80.10;;;;;;5019838;28;20024;-82
2021/06/28 09:36:22;;;;;;;6.30;1.95;;;34.20;79.40;;;;;;5024955;28;20022;-84
2021/06/28 09:38:48;;;;;;;6.97;1.83;;;34.30;78.30;;;;;;5018219;28;20037;-84
2021/06/28 09:41:24;;;;;;;11.95;2.03;;;34.40;78.20;;;;;;5025742;28;20026;-80
2021/06/28 09:44:09;;;;;;;5.05;1.65;;;34.40;76.80;;;;;;5020512;28;20303;-81
2021/06/28 09:46:36;;;;;;;7.18;1.65;;;34.40;77.20;;;;;;5025104;28;20022;-83
2021/06/28 09:49:04;;;;;;;2.42;1.42;;;34.50;77.30;;;;;;5026015;28;20230;-82
2021/06/28 09:51:32;;;;;;;4.55;1.52;;;34.50;74.40;;;;;;5014638;28;20018;-84
2021/06/28 09:54:14;;;;;;;12.85;2.20;;;34.30;76.50;;;;;;5013794;28;20018;-82
2021/06/28 09:56:46;;;;;;;11.00;1.80;;;34.30;76.80;;;;;;5022022;28;20030;-83
2021/06/28 09:59:47;;;;;;;4.55;1.58;;;34.30;77.00;;;;;;5019393;28;20613;-80
2021/06/28 10:02:25;;;;;;;9.05;2.05;;;34.20;77.90;;;;;;5018038;28;20041;-82
2021/06/28 10:05:11;;;;;;;5.22;1.70;;;34.00;79.60;;;;;;5029628;28;20025;-84
2021/06/28 10:07:39;;;;;;;10.10;2.22;;;34.00;81.00;;;;;;5013932;28;20053;-82
2021/06/28 10:10:26;;;;;;;12.77;1.90;;;34.00;81.30;;;;;;5026414;28;20036;-85
2021/06/28 10:12:52;;;;;;;10.27;1.70;;;34.10;81.60;;;;;;5024728;28;20024;-81
2021/06/28 10:15:19;;;;;;;4.15;1.67;;;34.10;81.10;;;;;;5029557;28;20378;-84
2021/06/28 10:17:49;;;;;;;2.83;1.60;;;34.10;79.80;;;;;;5033747;28;20563;-84
2021/06/28 10:20:17;;;;;;;9.70;1.60;;;33.90;80.70;;;;;;5031464;28;20046;-84
2021/06/28 10:22:45;;;;;;;5.80;1.77;;;34.00;81.60;;;;;;5029408;28;20109;-82
2021/06/28 10:25:13;;;;;;;4.30;1.67;;;34.10;80.20;;;;;;5017839;28;20022;-84
2021/06/28 10:27:39;;;;;;;3.38;1.40;;;34.20;79.60;;;;;;5015683;28;20022;-83
2021/06/28 10:30:08;;;;;;;3.25;2.05;;;34.20;80.50;;;;;;5015275;28;20022;-82
2021/06/28 10:32:35;;;;;;;3.15;1.60;;;34.10;81.10;;;;;;5019379;28;20025;-82
2021/06/28 10:35:01;;;;;;;7.05;2.15;;;34.10;81.10;;;;;;5032691;28;20370;-82
2021/06/28 10:37:46;;;;;;;4.07;1.65;;;34.10;80.30;;;;;;5032623;28;20057;-83
2021/06/28 10:40:21;;;;;;;9.10;1.77;;;34.10;78.40;;;;;;5015454;28;20036;-85
2021/06/28 10:42:50;;;;;;;4.40;1.70;;;34.20;78.30;;;;;;5029067;28;20024;-83
2021/06/28 10:45:35;;;;;;;6.32;1.52;;;34.30;77.50;;;;;;5032826;28;20051;-83
2021/06/28 10:48:12;;;;;;;8.23;1.50;;;34.20;77.70;;;;;;5030774;28;20021;-83
2021/06/28 10:50:57;;;;;;;10.95;1.60;;;34.10;78.80;;;;;;5031293;28;20021;-82
2021/06/28 10:53:29;;;;;;;9.98;2.65;;;34.10;78.80;;;;;;5012409;28;20022;-82
2021/06/28 10:55:54;;;;;;;4.18;1.30;;;34.10;79.10;;;;;;5014127;28;20022;-83
2021/06/28 10:58:29;;;;;;;4.00;1.38;;;33.90;78.70;;;;;;4999692;28;20029;-82
2021/06/28 11:01:06;;;;;;;4.80;1.83;;;33.70;80.00;;;;;;5014560;28;20022;-81
2021/06/28 11:03:34;;;;;;;9.35;1.70;;;33.70;80.40;;;;;;5014193;28;20048;-81
2021/06/28 11:06:22;;;;;;;1.75;1.50;;;33.80;79.50;;;;;;5017634;28;20079;-82
2021/06/28 11:09:00;;;;;;;5.70;1.65;;;33.80;79.40;;;;;;5028865;28;20443;-80
2021/06/28 11:11:46;;;;;;;5.82;1.90;;;33.60;81.20;;;;;;5015736;28;20052;-81
2021/06/28 11:14:18;;;;;;;4.35;2.13;;;33.60;82.90;;;;;;5031808;28;20033;-83
2021/06/28 11:16:58;;;;;;;9.48;2.17;;;33.70;83.30;;;;;;5031296;28;20327;-82
2021/06/28 11:20:02;;;;;;;13.95;1.98;;;33.70;83.10;;;;;;5025190;28;20060;-81
2021/06/28 11:22:28;;;;;;;7.15;1.73;;;33.70;84.50;;;;;;5013587;28;20058;-81
2021/06/28 11:25:05;;;;;;;13.65;1.90;;;33.60;83.90;;;;;;5014276;28;20373;-83
2021/06/28 11:27:31;;;;;;;9.43;1.55;;;33.60;84.20;;;;;;5012876;28;20022;-80
2021/06/28 11:29:57;;;;;;;8.30;1.58;;;33.50;81.40;;;;;;5013423;28;20041;-82
2021/06/28 11:32:25;;;;;;;4.65;1.80;;;33.40;81.80;;;;;;5014271;28;20017;-81
2021/06/28 11:34:51;;;;;;;3.38;1.40;;;33.30;81.50;;;;;;5022419;28;20637;-81
2021/06/28 11:37:17;;;;;;;9.93;1.70;;;33.30;81.20;;;;;;5011925;28;20097;-81
2021/06/28 11:39:55;;;;;;;6.60;1.63;;;33.30;79.40;;;;;;5015104;28;20406;-83
2021/06/28 11:42:26;;;;;;;6.15;1.30;;;33.30;79.60;;;;;;5017805;28;20026;-82
2021/06/28 11:44:57;;;;;;;6.68;1.33;;;33.30;79.10;;;;;;5024095;28;20139;-83
2021/06/28 11:47:48;;;;;;;6.50;1.63;;;33.20;79.80;;;;;;4997924;28;20032;-83
2021/06/28 11:50:36;;;;;;;11.00;1.90;;;33.20;78.60;;;;;;5002322;28;20022;-81
2021/06/28 11:53:06;;;;;;;3.80;1.40;;;33.20;76.40;;;;;;5031674;28;20082;-84
2021/06/28 11:55:34;;;;;;;3.20;1.30;;;33.20;77.30;;;;;;5016078;28;20022;-82
2021/06/28 11:58:01;;;;;;;5.75;1.00;;;33.30;77.30;;;;;;5013991;28;20477;-82
2021/06/28 12:00:27;;;;;;;5.28;1.20;;;33.30;76.90;;;;;;5015176;28;20475;-82
2021/06/28 12:03:26;;;;;;;3.08;1.25;;;33.30;75.70;;;;;;4996969;28;20048;-81
2021/06/28 12:05:52;;;;;;;9.13;1.00;;;33.10;73.10;;;;;;5014289;28;20060;-81
2021/06/28 12:08:26;;;;;;;1.77;1.15;;;33.00;69.60;;;;;;5008518;28;20024;-81
2021/06/28 12:10:59;;;;;;;6.18;1.30;;;32.80;73.60;;;;;;5014883;28;20509;-81
2021/06/28 12:13:33;;;;;;;4.70;1.17;;;32.70;76.00;;;;;;5024473;28;20030;-84
2021/06/28 12:16:17;;;;;;;5.20;1.35;;;32.80;77.10;;;;;;4999428;28;20498;-84
2021/06/28 12:18:42;;;;;;;2.92;1.10;;;32.80;77.50;;;;;;5024111;28;20057;-84
2021/06/28 12:21:08;;;;;;;5.22;1.08;;;32.80;77.00;;;;;;5010031;28;20585;-83
2021/06/28 12:23:34;;;;;;;2.22;0.98;;;32.80;78.50;;;;;;4995324;28;20128;-85
2021/06/28 12:26:18;;;;;;;4.22;0.90;;;32.80;76.70;;;;;;5031062;28;20028;-85
2021/06/28 12:28:43;;;;;;;23.85;2.10;;;32.90;77.50;;;;;;5031218;28;20021;-86
2021/06/28 12:31:14;;;;;;;3.53;1.42;;;32.90;80.90;;;;;;5032210;28;20472;-85
2021/06/28 12:33:40;;;;;;;5.90;1.42;;;33.00;81.80;;;;;;5015600;28;20029;-87
2021/06/28 12:36:06;;;;;;;1.60;1.00;;;33.00;78.10;;;;;;5012549;28;20030;-83
2021/06/28 12:38:31;;;;;;;6.00;1.52;;;33.00;78.20;;;;;;5014048;28;20064;-84
2021/06/28 12:40:57;;;;;;;9.02;1.42;;;33.10;77.20;;;;;;5007132;28;20443;-84
2021/06/28 12:43:25;;;;;;;1.80;1.10;;;33.00;78.30;;;;;;5015280;28;20018;-84
2021/06/28 12:45:54;;;;;;;2.05;1.10;;;32.90;79.40;;;;;;5012726;28;20378;-83
2021/06/28 12:48:30;;;;;;;7.40;1.60;;;32.70;77.90;;;;;;4995062;28;20017;-84
2021/06/28 12:51:02;;;;;;;3.80;1.42;;;32.60;81.50;;;;;;5011802;28;20502;-83